createdAt,value
2023-03-24T00:01:07.633Z,99576.22
2023-03-24T00:03:34.706Z,99569.88
2023-03-24T00:06:04.011Z,99569.78
2023-03-24T00:08:36.436Z,99573.31
2023-03-24T00:11:06.643Z,99575.47
2023-03-24T00:13:38.386Z,99567.78
2023-03-24T00:16:06.894Z,99566.66
2023-03-24T00:18:34.200Z,99567.13
2023-03-24T00:21:01.213Z,99565.53
2023-03-24T00:23:32.661Z,99566.56
2023-03-24T00:26:07.545Z,99565.97
2023-03-24T00:28:37.044Z,99564.41
2023-03-24T00:31:05.927Z,99561.25
2023-03-24T00:33:35.107Z,99563.06
2023-03-24T00:36:07.487Z,99550.13
2023-03-24T00:38:35.024Z,99554.25
2023-03-24T00:41:02.398Z,99554.66
2023-03-24T00:43:29.859Z,99553.28
2023-03-24T00:46:07.342Z,99544.72
2023-03-24T00:48:35.262Z,99544.34
2023-03-24T00:51:03.183Z,99536.00
2023-03-24T00:53:30.619Z,99535.75
2023-03-24T00:55:58.786Z,99534.50
2023-03-24T00:58:26.332Z,99537.66
2023-03-24T01:00:56.350Z,99526.44
2023-03-24T01:03:27.662Z,99530.19
2023-03-24T01:06:03.165Z,99528.50
2023-03-24T01:08:31.713Z,99523.75
2023-03-24T01:11:01.260Z,99528.59
2023-03-24T01:13:29.538Z,99522.72
2023-03-24T01:15:57.653Z,99525.22
2023-03-24T01:18:24.642Z,99526.72
2023-03-24T01:20:51.829Z,99521.72
2023-03-24T01:23:22.503Z,99512.78
2023-03-24T01:25:51.149Z,99507.56
2023-03-24T01:28:24.965Z,99498.94
2023-03-24T01:30:53.365Z,99506.19
2023-03-24T01:33:20.998Z,99516.53
2023-03-24T01:35:48.138Z,99519.81
2023-03-24T01:38:15.477Z,99518.75
2023-03-24T01:40:45.275Z,99504.50
2023-03-24T01:43:27.304Z,99508.00
2023-03-24T01:46:14.527Z,99503.47
2023-03-24T01:48:47.007Z,99498.84
2023-03-24T01:51:25.543Z,99500.53
2023-03-24T01:54:07.381Z,99497.81
2023-03-24T01:56:39.985Z,99498.84
2023-03-24T01:59:10.800Z,99497.13
2023-03-24T02:02:03.153Z,99493.50
2023-03-24T02:04:50.522Z,99490.34
2023-03-24T02:07:41.156Z,99493.94
2023-03-24T02:10:13.552Z,99497.78
2023-03-24T02:12:41.723Z,99497.34
2023-03-24T02:15:10.322Z,99492.59
2023-03-24T02:17:54.763Z,99497.66
2023-03-24T02:21:04.551Z,99494.13
2023-03-24T02:23:54.248Z,99490.50
2023-03-24T02:26:47.786Z,99493.09
2023-03-24T02:29:31.560Z,99493.31
2023-03-24T02:32:16.425Z,99490.19
2023-03-24T02:35:05.010Z,99495.25
2023-03-24T02:37:53.415Z,99492.66
2023-03-24T02:40:37.871Z,99479.50
2023-03-24T02:43:17.206Z,99477.81
2023-03-24T02:46:03.053Z,99480.06
2023-03-24T02:48:50.975Z,99471.59
2023-03-24T02:51:27.599Z,99470.56
2023-03-24T02:54:26.011Z,99468.97
2023-03-24T02:57:09.785Z,99471.56
2023-03-24T03:00:18.372Z,99466.78
2023-03-24T03:03:28.888Z,99456.06
2023-03-24T03:06:07.098Z,99463.19
2023-03-24T03:08:36.235Z,99463.09
2023-03-24T03:11:06.040Z,99460.38
2023-03-24T03:13:43.587Z,99458.56
2023-03-24T03:16:17.471Z,99458.69
2023-03-24T03:18:51.872Z,99459.03
2023-03-24T03:21:23.777Z,99461.88
2023-03-24T03:24:11.330Z,99465.16
2023-03-24T03:26:39.146Z,99459.38
2023-03-24T03:29:14.076Z,99461.06
2023-03-24T03:31:51.774Z,99461.50
2023-03-24T03:34:34.587Z,99462.78
2023-03-24T03:37:24.138Z,99458.88
2023-03-24T03:39:56.392Z,99459.59
2023-03-24T03:42:24.003Z,99464.97
2023-03-24T03:44:51.718Z,99458.78
2023-03-24T03:47:21.306Z,99461.97
2023-03-24T03:49:49.227Z,99462.59
2023-03-24T03:52:16.658Z,99466.00
2023-03-24T03:54:45.391Z,99460.72
2023-03-24T03:57:14.101Z,99466.72
2023-03-24T04:00:15.803Z,99477.59
2023-03-24T04:03:00.312Z,99481.19
2023-03-24T04:05:48.611Z,99478.78
2023-03-24T04:08:40.040Z,99477.59
2023-03-24T04:11:31.227Z,99474.38
2023-03-24T04:14:37.911Z,99475.63
2023-03-24T04:17:40.236Z,99478.91
2023-03-24T04:20:19.592Z,99458.06
2023-03-24T04:23:05.556Z,99464.06
2023-03-24T04:26:14.847Z,99456.25
2023-03-24T04:29:03.343Z,99469.84
2023-03-24T04:31:40.159Z,99477.31
2023-03-24T04:34:30.819Z,99478.97
2023-03-24T04:37:12.553Z,99476.59
2023-03-24T04:39:50.503Z,99466.78
2023-03-24T04:42:25.754Z,99454.22
2023-03-24T04:44:53.162Z,99464.88
2023-03-24T04:47:53.769Z,99455.78
2023-03-24T04:50:39.809Z,99466.91
2023-03-24T04:53:11.928Z,99462.56
2023-03-24T04:55:54.397Z,99462.31
2023-03-24T04:58:39.907Z,99457.56
2023-03-24T05:01:09.198Z,99453.94
2023-03-24T05:03:38.165Z,99451.47
2023-03-24T05:06:08.468Z,99446.66
2023-03-24T05:08:35.466Z,99447.91
2023-03-24T05:11:02.551Z,99452.88
2023-03-24T05:13:31.417Z,99456.63
2023-03-24T05:16:01.488Z,99456.28
2023-03-24T05:18:48.648Z,99466.56
2023-03-24T05:21:16.593Z,99475.38
2023-03-24T05:23:44.695Z,99480.41
2023-03-24T05:26:11.470Z,99472.78
2023-03-24T05:28:55.259Z,99473.97
2023-03-24T05:31:22.785Z,99488.81
2023-03-24T05:33:56.748Z,99484.88
2023-03-24T05:36:25.103Z,99479.22
2023-03-24T05:38:56.946Z,99471.19
2023-03-24T05:41:30.879Z,99471.50
2023-03-24T05:43:57.613Z,99483.88
2023-03-24T05:46:26.433Z,99479.56
2023-03-24T05:48:53.698Z,99468.34
2023-03-24T05:51:21.580Z,99477.19
2023-03-24T05:53:57.746Z,99482.06
2023-03-24T05:56:37.156Z,99477.88
2023-03-24T05:59:17.979Z,99473.81
2023-03-24T06:01:58.672Z,99475.69
2023-03-24T06:04:39.746Z,99477.94
2023-03-24T06:07:14.438Z,99470.53
2023-03-24T06:09:47.266Z,99474.34
2023-03-24T06:12:16.456Z,99469.31
2023-03-24T06:15:09.874Z,99458.28
2023-03-24T06:17:37.539Z,99453.00
2023-03-24T06:20:18.774Z,99449.81
2023-03-24T06:23:15.533Z,99443.59
2023-03-24T06:26:15.194Z,99442.38
2023-03-24T06:28:58.969Z,99451.34
2023-03-24T06:31:30.895Z,99448.22
2023-03-24T06:33:57.771Z,99446.66
2023-03-24T06:36:25.861Z,99447.94
2023-03-24T06:38:53.916Z,99448.41
2023-03-24T06:41:21.902Z,99435.72
2023-03-24T06:43:57.050Z,99439.78
2023-03-24T06:46:25.729Z,99435.47
2023-03-24T06:48:52.580Z,99432.59
2023-03-24T06:51:19.980Z,99435.69
2023-03-24T06:53:47.021Z,99432.06
2023-03-24T06:56:19.925Z,99433.38
2023-03-24T06:58:52.450Z,99439.66
2023-03-24T07:01:35.374Z,99437.00
2023-03-24T07:04:16.035Z,99435.63
2023-03-24T07:07:05.580Z,99431.53
2023-03-24T07:09:42.047Z,99429.19
2023-03-24T07:12:09.091Z,99425.09
2023-03-24T07:14:37.510Z,99427.13
2023-03-24T07:17:06.421Z,99426.72
2023-03-24T07:19:45.959Z,99424.47
2023-03-24T07:22:38.818Z,99417.31
2023-03-24T07:25:41.760Z,99412.47
2023-03-24T07:28:17.082Z,99416.50
2023-03-24T07:30:44.349Z,99423.69
2023-03-24T07:33:12.807Z,99420.16
2023-03-24T07:35:44.061Z,99420.81
2023-03-24T07:38:11.322Z,99420.59
2023-03-24T07:40:38.678Z,99408.16
2023-03-24T07:43:09.337Z,99418.69
2023-03-24T07:46:09.621Z,99412.81
2023-03-24T07:48:37.679Z,99409.84
2023-03-24T07:51:04.586Z,99404.44
2023-03-24T07:54:03.943Z,99403.16
2023-03-24T07:56:36.218Z,99407.59
2023-03-24T07:59:03.850Z,99401.06
2023-03-24T08:01:54.850Z,99401.91
2023-03-24T08:04:43.085Z,99395.06
2023-03-24T08:07:28.690Z,99399.00
2023-03-24T08:09:57.889Z,99391.41
2023-03-24T08:12:24.705Z,99395.50
2023-03-24T08:14:52.286Z,99395.19
2023-03-24T08:17:19.061Z,99396.94
2023-03-24T08:19:58.860Z,99385.94
2023-03-24T08:22:28.077Z,99375.44
2023-03-24T08:24:54.840Z,99369.22
2023-03-24T08:27:21.640Z,99363.97
2023-03-24T08:29:48.429Z,99351.59
2023-03-24T08:32:15.395Z,99355.66
2023-03-24T08:34:42.237Z,99354.09
2023-03-24T08:37:09.121Z,99352.66
2023-03-24T08:39:36.136Z,99352.63
2023-03-24T08:42:03.470Z,99348.81
2023-03-24T08:44:32.802Z,99353.88
2023-03-24T08:47:01.668Z,99353.97
2023-03-24T08:49:28.800Z,99353.88
2023-03-24T08:51:57.136Z,99354.47
2023-03-24T08:54:26.181Z,99355.59
2023-03-24T08:56:55.754Z,99346.38
2023-03-24T08:59:22.659Z,99352.75
2023-03-24T09:01:53.119Z,99358.66
2023-03-24T09:04:19.941Z,99356.03
2023-03-24T09:06:46.749Z,99354.22
2023-03-24T09:09:13.421Z,99353.69
2023-03-24T09:11:40.251Z,99357.16
2023-03-24T09:14:07.050Z,99355.84
2023-03-24T09:16:34.749Z,99351.97
2023-03-24T09:19:01.878Z,99353.56
2023-03-24T09:21:28.776Z,99341.50
2023-03-24T09:23:55.780Z,99352.53
2023-03-24T09:26:23.260Z,99357.28
2023-03-24T09:28:51.186Z,99353.06
2023-03-24T09:31:18.054Z,99356.72
2023-03-24T09:33:44.830Z,99364.53
2023-03-24T09:36:11.994Z,99371.56
2023-03-24T09:38:38.833Z,99360.03
2023-03-24T09:41:14.771Z,99355.81
2023-03-24T09:43:45.390Z,99358.94
2023-03-24T09:46:35.913Z,99358.66
2023-03-24T09:49:04.243Z,99374.66
2023-03-24T09:51:39.757Z,99372.59
2023-03-24T09:54:23.134Z,99370.72
2023-03-24T09:56:51.943Z,99355.41
2023-03-24T09:59:20.290Z,99359.28
2023-03-24T10:01:47.843Z,99353.16
2023-03-24T10:04:21.110Z,99352.84
2023-03-24T10:06:53.373Z,99357.22
2023-03-24T10:09:32.974Z,99357.94
2023-03-24T10:12:17.695Z,99359.22
2023-03-24T10:15:24.327Z,99358.28
2023-03-24T10:18:07.346Z,99362.16
2023-03-24T10:21:22.693Z,99352.13
2023-03-24T10:24:02.572Z,99357.69
2023-03-24T10:26:54.322Z,99350.59
2023-03-24T10:29:23.687Z,99353.16
2023-03-24T10:32:02.504Z,99358.44
2023-03-24T10:34:33.126Z,99357.31
2023-03-24T10:37:07.285Z,99362.50
2023-03-24T10:39:43.968Z,99355.69
2023-03-24T10:42:21.927Z,99347.78
2023-03-24T10:44:50.499Z,99350.25
2023-03-24T10:47:22.669Z,99353.41
2023-03-24T10:50:00.796Z,99360.25
2023-03-24T10:52:46.546Z,99349.03
2023-03-24T10:55:19.413Z,99345.75
2023-03-24T10:57:48.211Z,99344.22
2023-03-24T11:00:19.421Z,99340.38
2023-03-24T11:03:05.350Z,99338.22
2023-03-24T11:05:41.161Z,99323.78
2023-03-24T11:08:28.786Z,99330.88
2023-03-24T11:10:56.304Z,99336.47
2023-03-24T11:13:33.183Z,99324.66
2023-03-24T11:16:06.318Z,99318.44
2023-03-24T11:18:33.407Z,99307.56
2023-03-24T11:21:05.504Z,99302.75
2023-03-24T11:23:45.225Z,99295.84
2023-03-24T11:26:30.127Z,99292.13
2023-03-24T11:29:01.027Z,99293.69
2023-03-24T11:31:30.963Z,99284.84
2023-03-24T11:34:14.827Z,99282.41
2023-03-24T11:36:48.608Z,99274.50
2023-03-24T11:39:19.835Z,99274.31
2023-03-24T11:42:16.578Z,99264.34
2023-03-24T11:44:53.582Z,99259.47
2023-03-24T11:47:36.631Z,99262.19
2023-03-24T11:50:19.279Z,99256.91
2023-03-24T11:53:16.226Z,99257.69
2023-03-24T11:56:21.701Z,99259.56
2023-03-24T11:59:03.934Z,99262.34
2023-03-24T12:02:02.529Z,99253.25
2023-03-24T12:04:56.806Z,99246.50
2023-03-24T12:07:25.171Z,99250.38
2023-03-24T12:10:10.806Z,99238.47
2023-03-24T12:12:52.767Z,99238.75
2023-03-24T12:15:57.412Z,99229.78
2023-03-24T12:18:48.084Z,99234.16
2023-03-24T12:21:33.929Z,99232.06
2023-03-24T12:24:10.463Z,99231.84
2023-03-24T12:26:39.222Z,99221.13
2023-03-24T12:29:21.520Z,99226.53
2023-03-24T12:32:16.230Z,99213.31
2023-03-24T12:34:56.163Z,99224.09
2023-03-24T12:37:54.539Z,99228.84
2023-03-24T12:40:33.032Z,99216.91
2023-03-24T12:43:31.585Z,99224.84
2023-03-24T12:46:11.236Z,99228.22
2023-03-24T12:48:40.846Z,99217.50
2023-03-24T12:51:28.201Z,99215.72
2023-03-24T12:54:36.700Z,99211.81
2023-03-24T12:57:11.547Z,99209.50
2023-03-24T12:59:50.448Z,99209.69
2023-03-24T13:02:45.817Z,99207.25
2023-03-24T13:05:21.220Z,99202.88
2023-03-24T13:07:57.511Z,99211.78
2023-03-24T13:10:28.260Z,99214.09
2023-03-24T13:13:29.656Z,99205.38
2023-03-24T13:16:09.400Z,99207.19
2023-03-24T13:19:00.021Z,99202.09
2023-03-24T13:21:29.731Z,99200.03
2023-03-24T13:24:02.277Z,99205.91
2023-03-24T13:26:44.171Z,99202.06
2023-03-24T13:29:54.402Z,99195.00
2023-03-24T13:32:21.673Z,99197.38
2023-03-24T13:34:56.917Z,99190.53
2023-03-24T13:37:35.176Z,99191.88
2023-03-24T13:40:11.118Z,99192.97
2023-03-24T13:42:48.143Z,99193.97
2023-03-24T13:45:35.109Z,99187.84
2023-03-24T13:48:11.041Z,99186.25
2023-03-24T13:50:41.032Z,99185.59
2023-03-24T13:53:15.715Z,99193.50
2023-03-24T13:55:51.299Z,99195.38
2023-03-24T13:58:28.394Z,99195.63
2023-03-24T14:01:11.111Z,99196.22
2023-03-24T14:03:43.368Z,99204.16
2023-03-24T14:06:11.796Z,99191.22
2023-03-24T14:08:53.859Z,99198.09
2023-03-24T14:11:35.693Z,99196.97
2023-03-24T14:14:19.335Z,99195.47
2023-03-24T14:17:09.066Z,99187.22
2023-03-24T14:19:40.519Z,99187.28
2023-03-24T14:22:14.332Z,99186.88
2023-03-24T14:24:46.551Z,99194.59
2023-03-24T14:27:29.281Z,99183.56
2023-03-24T14:30:26.533Z,99177.50
2023-03-24T14:32:56.767Z,99180.22
2023-03-24T14:35:44.865Z,99177.75
2023-03-24T14:38:27.165Z,99179.53
2023-03-24T14:40:58.749Z,99175.69
2023-03-24T14:44:00.834Z,99178.63
2023-03-24T14:46:48.095Z,99168.53
2023-03-24T14:49:29.198Z,99172.97
2023-03-24T14:52:44.358Z,99164.63
2023-03-24T14:55:16.639Z,99163.31
2023-03-24T14:57:51.857Z,99162.75
2023-03-24T15:00:21.727Z,99164.63
2023-03-24T15:03:01.128Z,99157.66
2023-03-24T15:05:30.027Z,99163.06
2023-03-24T15:08:03.540Z,99157.63
2023-03-24T15:10:48.350Z,99157.69
2023-03-24T15:13:34.902Z,99159.69
2023-03-24T15:16:24.589Z,99161.78
2023-03-24T15:19:02.094Z,99159.75
2023-03-24T15:21:38.019Z,99168.25
2023-03-24T15:24:22.905Z,99158.34
2023-03-24T15:26:52.929Z,99160.19
2023-03-24T15:29:19.717Z,99151.53
2023-03-24T15:31:46.901Z,99166.75
2023-03-24T15:34:31.558Z,99159.72
2023-03-24T15:37:04.282Z,99163.19
2023-03-24T15:39:41.073Z,99164.25
2023-03-24T15:42:14.704Z,99163.69
2023-03-24T15:44:42.180Z,99162.66
2023-03-24T15:47:24.270Z,99162.66
2023-03-24T15:49:54.494Z,99167.41
2023-03-24T15:52:28.770Z,99162.13
2023-03-24T15:54:59.482Z,99161.59
2023-03-24T15:57:27.072Z,99164.72
2023-03-24T15:59:59.466Z,99173.41
2023-03-24T16:02:42.451Z,99174.81
2023-03-24T16:05:19.698Z,99179.53
2023-03-24T16:07:55.975Z,99181.63
2023-03-24T16:10:32.670Z,99178.28
2023-03-24T16:13:15.931Z,99184.31
2023-03-24T16:15:48.562Z,99181.69
2023-03-24T16:18:20.706Z,99181.41
2023-03-24T16:20:47.929Z,99186.63
2023-03-24T16:23:15.321Z,99185.53
2023-03-24T16:25:42.282Z,99190.03
2023-03-24T16:28:16.240Z,99187.16
2023-03-24T16:30:44.377Z,99187.94
2023-03-24T16:33:12.682Z,99193.66
2023-03-24T16:35:39.643Z,99191.09
2023-03-24T16:38:06.971Z,99202.66
2023-03-24T16:40:55.962Z,99196.63
2023-03-24T16:43:23.037Z,99201.91
2023-03-24T16:45:50.708Z,99203.22
2023-03-24T16:48:18.160Z,99210.63
2023-03-24T16:50:50.162Z,99215.38
2023-03-24T16:53:18.052Z,99218.84
2023-03-24T16:55:46.907Z,99226.25
2023-03-24T16:58:16.444Z,99237.25
2023-03-24T17:00:45.906Z,99233.41
2023-03-24T17:03:14.203Z,99244.97
2023-03-24T17:05:50.678Z,99243.97
2023-03-24T17:08:19.143Z,99244.47
2023-03-24T17:10:48.729Z,99247.63
2023-03-24T17:13:26.035Z,99253.94
2023-03-24T17:15:53.448Z,99244.47
2023-03-24T17:18:20.607Z,99245.53
2023-03-24T17:20:48.285Z,99237.13
2023-03-24T17:23:18.696Z,99237.66
2023-03-24T17:25:45.955Z,99233.97
2023-03-24T17:28:19.051Z,99237.13
2023-03-24T17:30:45.831Z,99230.00
2023-03-24T17:33:14.893Z,99233.94
2023-03-24T17:35:44.813Z,99241.25
2023-03-24T17:38:14.884Z,99242.84
2023-03-24T17:40:42.310Z,99254.91
2023-03-24T17:43:09.156Z,99250.72
2023-03-24T17:45:35.977Z,99252.81
2023-03-24T17:48:02.783Z,99255.94
2023-03-24T17:50:30.870Z,99245.44
2023-03-24T17:52:57.825Z,99254.34
2023-03-24T17:55:24.684Z,99249.63
2023-03-24T17:57:51.403Z,99245.97
2023-03-24T18:00:18.475Z,99239.69
2023-03-24T18:02:45.354Z,99232.88
2023-03-24T18:05:12.897Z,99239.44
2023-03-24T18:07:40.349Z,99227.63
2023-03-24T18:10:08.427Z,99236.53
2023-03-24T18:12:37.124Z,99237.06
2023-03-24T18:15:04.940Z,99239.16
2023-03-24T18:17:31.845Z,99223.44
2023-03-24T18:20:00.830Z,99226.84
2023-03-24T18:22:27.741Z,99234.13
2023-03-24T18:24:54.737Z,99235.41
2023-03-24T18:27:21.596Z,99250.84
2023-03-24T18:29:48.344Z,99240.91
2023-03-24T18:32:15.267Z,99251.91
2023-03-24T18:34:44.772Z,99257.41
2023-03-24T18:37:14.106Z,99251.94
2023-03-24T18:39:40.987Z,99250.34
2023-03-24T18:42:08.138Z,99242.72
2023-03-24T18:44:34.974Z,99235.16
2023-03-24T18:47:01.808Z,99236.22
2023-03-24T18:49:28.805Z,99235.41
2023-03-24T18:51:55.580Z,99233.25
2023-03-24T18:54:22.399Z,99228.56
2023-03-24T18:56:49.267Z,99226.19
2023-03-24T18:59:16.245Z,99234.31
2023-03-24T19:01:48.677Z,99236.94
2023-03-24T19:04:17.292Z,99234.78
2023-03-24T19:06:50.396Z,99227.22
2023-03-24T19:09:21.040Z,99234.59
2023-03-24T19:11:48.258Z,99259.91
2023-03-24T19:14:15.106Z,99264.34
2023-03-24T19:16:42.194Z,99270.91
2023-03-24T19:19:10.027Z,99277.44
2023-03-24T19:21:36.863Z,99281.69
2023-03-24T19:24:03.716Z,99290.84
2023-03-24T19:26:30.514Z,99279.84
2023-03-24T19:28:57.725Z,99283.47
2023-03-24T19:31:24.544Z,99268.22
2023-03-24T19:33:52.407Z,99264.41
2023-03-24T19:36:19.919Z,99255.44
2023-03-24T19:38:46.722Z,99263.78
2023-03-24T19:41:14.909Z,99257.50
2023-03-24T19:43:42.500Z,99255.41
2023-03-24T19:46:09.595Z,99257.47
2023-03-24T19:48:36.573Z,99255.91
2023-03-24T19:51:03.585Z,99256.66
2023-03-24T19:53:30.695Z,99263.22
2023-03-24T19:55:59.772Z,99268.44
2023-03-24T19:58:26.788Z,99262.44
2023-03-24T20:00:54.039Z,99265.25
2023-03-24T20:03:21.532Z,99262.63
2023-03-24T20:05:49.203Z,99252.97
2023-03-24T20:08:19.747Z,99254.00
2023-03-24T20:10:46.989Z,99262.44
2023-03-24T20:13:13.729Z,99253.25
2023-03-24T20:15:41.055Z,99254.78
2023-03-24T20:18:10.159Z,99258.41
2023-03-24T20:20:36.968Z,99262.38
2023-03-24T20:23:03.899Z,99250.88
2023-03-24T20:25:30.841Z,99254.53
2023-03-24T20:27:57.566Z,99248.25
2023-03-24T20:30:26.260Z,99240.41
2023-03-24T20:32:56.832Z,99225.53
2023-03-24T20:35:24.090Z,99239.44
2023-03-24T20:37:50.970Z,99235.00
2023-03-24T20:40:18.102Z,99240.22
2023-03-24T20:42:44.986Z,99246.22
2023-03-24T20:45:12.894Z,99241.50
2023-03-24T20:47:39.816Z,99239.69
2023-03-24T20:50:07.321Z,99245.94
2023-03-24T20:52:35.106Z,99245.13
2023-03-24T20:55:06.448Z,99240.94
2023-03-24T20:57:34.454Z,99235.44
2023-03-24T21:00:02.253Z,99239.88
2023-03-24T21:02:31.801Z,99238.03
2023-03-24T21:04:59.422Z,99240.34
2023-03-24T21:07:27.113Z,99240.81
2023-03-24T21:09:53.934Z,99237.94
2023-03-24T21:12:21.875Z,99229.81
2023-03-24T21:14:49.531Z,99230.03
2023-03-24T21:17:18.789Z,99233.66
2023-03-24T21:19:46.976Z,99234.63
2023-03-24T21:22:15.866Z,99245.06
2023-03-24T21:24:42.694Z,99239.53
2023-03-24T21:27:09.527Z,99237.13
2023-03-24T21:29:36.767Z,99234.47
2023-03-24T21:32:03.626Z,99221.81
2023-03-24T21:34:30.599Z,99230.13
2023-03-24T21:36:57.452Z,99215.13
2023-03-24T21:39:24.356Z,99221.56
2023-03-24T21:41:52.410Z,99223.56
2023-03-24T21:44:19.817Z,99228.00
2023-03-24T21:46:48.093Z,99219.34
2023-03-24T21:49:18.949Z,99197.91
2023-03-24T21:51:47.942Z,99204.63
2023-03-24T21:54:21.245Z,99195.47
2023-03-24T21:56:48.050Z,99195.97
2023-03-24T21:59:14.916Z,99187.09
2023-03-24T22:01:43.010Z,99178.50
2023-03-24T22:04:11.130Z,99176.91
2023-03-24T22:06:39.655Z,99177.38
2023-03-24T22:09:07.405Z,99167.44
2023-03-24T22:11:35.638Z,99165.84
2023-03-24T22:14:04.082Z,99169.00
2023-03-24T22:16:31.212Z,99177.88
2023-03-24T22:18:58.909Z,99178.88
2023-03-24T22:21:26.142Z,99184.63
2023-03-24T22:23:52.929Z,99168.72
2023-03-24T22:26:19.698Z,99183.00
2023-03-24T22:28:46.507Z,99163.44
2023-03-24T22:31:16.486Z,99170.72
2023-03-24T22:33:44.299Z,99169.38
2023-03-24T22:36:11.766Z,99170.94
2023-03-24T22:38:39.058Z,99171.75
2023-03-24T22:41:09.474Z,99184.00
2023-03-24T22:43:39.471Z,99192.38
2023-03-24T22:46:06.734Z,99200.19
2023-03-24T22:48:33.613Z,99197.84
2023-03-24T22:51:00.664Z,99200.94
2023-03-24T22:53:27.356Z,99194.84
2023-03-24T22:55:54.550Z,99205.03
2023-03-24T22:58:21.441Z,99200.16
2023-03-24T23:00:54.261Z,99212.16
2023-03-24T23:03:21.294Z,99212.41
2023-03-24T23:05:48.825Z,99211.03
2023-03-24T23:08:16.933Z,99218.34
2023-03-24T23:10:45.444Z,99219.44
2023-03-24T23:13:12.761Z,99214.00
2023-03-24T23:15:47.896Z,99224.66
2023-03-24T23:18:15.754Z,99223.63
2023-03-24T23:20:42.936Z,99217.38
2023-03-24T23:23:10.390Z,99219.44
2023-03-24T23:25:45.376Z,99219.13
2023-03-24T23:28:13.461Z,99223.06
2023-03-24T23:30:41.360Z,99216.84
2023-03-24T23:33:08.943Z,99218.94
2023-03-24T23:35:37.849Z,99222.09
2023-03-24T23:38:06.802Z,99212.63
2023-03-24T23:40:34.073Z,99222.34
2023-03-24T23:43:02.105Z,99223.13
2023-03-24T23:45:29.013Z,99224.16
2023-03-24T23:47:56.331Z,99221.31
2023-03-24T23:50:23.648Z,99218.47
2023-03-24T23:52:53.280Z,99221.06
2023-03-24T23:55:22.037Z,99221.06
2023-03-24T23:57:54.894Z,99218.94
